Time;durP1;ratioP1;P1;durP2;ratioP2;P2;SDS_P1;SDS_P2;PMS_P1;PMS_P2;Temp;Humidity;BMP_temperature;BMP_pressure;BME280_temperature;BME280_humidity;BME280_pressure;Samples;Min_cycle;Max_cycle;Signal;HPM_P1;HPM_P2
2022/10/14 00:03:45;;;;;;;106.95;99.00;;;;;;;;;;10174445;28;20045;-67
2022/10/14 00:08:42;;;;;;;106.50;98.43;;;;;;;;;;10174132;28;20048;-67
2022/10/14 00:13:38;;;;;;;109.25;101.65;;;;;;;;;;10175268;28;20535;-67
2022/10/14 00:18:35;;;;;;;112.22;104.03;;;;;;;;;;10174510;28;20050;-67
2022/10/14 00:23:31;;;;;;;108.05;99.85;;;;;;;;;;10176999;28;20053;-67
2022/10/14 00:28:27;;;;;;;107.47;99.57;;;;;;;;;;10165088;28;20419;-67
2022/10/14 00:33:24;;;;;;;110.50;102.13;;;;;;;;;;10174088;28;20053;-67
2022/10/14 00:38:20;;;;;;;111.13;103.07;;;;;;;;;;10179083;28;20045;-66
2022/10/14 00:43:17;;;;;;;116.15;107.47;;;;;;;;;;10161344;28;20044;-66
2022/10/14 00:48:13;;;;;;;112.55;104.60;;;;;;;;;;10184467;28;20046;-68
2022/10/14 00:53:10;;;;;;;116.45;108.07;;;;;;;;;;10177529;28;20489;-67
2022/10/14 00:58:07;;;;;;;113.85;105.80;;;;;;;;;;10186535;28;20051;-67
2022/10/14 01:03:10;;;;;;;115.65;107.25;;;;;;;;;;10187411;28;20077;-67
2022/10/14 01:08:33;;;;;;;108.53;100.90;;;;;;;;;;10184159;28;20054;-67
2022/10/14 01:13:39;;;;;;;118.63;110.15;;;;;;;;;;10185752;28;20150;-67
2022/10/14 01:18:54;;;;;;;119.40;110.63;;;;;;;;;;10192206;28;20053;-67
2022/10/14 01:24:06;;;;;;;117.20;108.55;;;;;;;;;;10179327;28;20042;-67
2022/10/14 01:29:21;;;;;;;121.03;112.20;;;;;;;;;;10161323;28;20134;-67
2022/10/14 01:34:22;;;;;;;120.18;111.40;;;;;;;;;;10173574;28;20081;-67
2022/10/14 01:39:24;;;;;;;121.97;112.88;;;;;;;;;;10179470;28;20065;-67
2022/10/14 01:44:21;;;;;;;123.00;114.03;;;;;;;;;;10185834;28;20038;-67
2022/10/14 01:49:37;;;;;;;124.43;115.75;;;;;;;;;;10183644;28;20053;-67
2022/10/14 01:54:35;;;;;;;115.85;107.47;;;;;;;;;;10177172;28;20053;-67
2022/10/14 01:59:32;;;;;;;123.15;114.22;;;;;;;;;;10166508;28;20073;-67
2022/10/14 02:04:28;;;;;;;122.28;113.38;;;;;;;;;;10184190;28;20065;-67
2022/10/14 02:09:34;;;;;;;126.13;117.30;;;;;;;;;;10190852;28;20057;-66
2022/10/14 02:14:50;;;;;;;124.93;115.88;;;;;;;;;;10171117;28;20045;-67
2022/10/14 02:19:54;;;;;;;120.80;112.18;;;;;;;;;;10175767;28;20045;-67
2022/10/14 02:24:52;;;;;;;119.65;111.47;;;;;;;;;;10178360;28;20046;-68
2022/10/14 02:29:49;;;;;;;125.78;116.80;;;;;;;;;;10183559;28;20064;-67
2022/10/14 02:34:49;;;;;;;124.93;116.32;;;;;;;;;;10177821;28;20441;-67
2022/10/14 02:39:49;;;;;;;120.82;111.80;;;;;;;;;;10173815;28;20435;-67
2022/10/14 02:44:59;;;;;;;121.38;112.80;;;;;;;;;;10179898;28;20046;-67
2022/10/14 02:49:55;;;;;;;121.38;112.75;;;;;;;;;;10175321;28;20508;-67
2022/10/14 02:54:51;;;;;;;119.07;110.07;;;;;;;;;;10176879;28;20080;-67
2022/10/14 02:59:48;;;;;;;121.03;112.13;;;;;;;;;;10168360;28;20060;-67
2022/10/14 03:04:44;;;;;;;117.30;108.72;;;;;;;;;;10167452;28;20050;-67
2022/10/14 03:09:40;;;;;;;120.03;110.68;;;;;;;;;;10180897;28;20068;-66
2022/10/14 03:14:36;;;;;;;118.05;109.03;;;;;;;;;;10177655;28;20056;-67
2022/10/14 03:19:33;;;;;;;124.32;114.95;;;;;;;;;;10175018;28;20046;-67
2022/10/14 03:24:29;;;;;;;125.55;115.93;;;;;;;;;;10184662;28;20041;-67
2022/10/14 03:29:25;;;;;;;129.35;119.68;;;;;;;;;;10177406;28;20050;-68
2022/10/14 03:34:22;;;;;;;130.30;120.38;;;;;;;;;;10176981;28;20046;-67
2022/10/14 03:39:19;;;;;;;128.98;119.47;;;;;;;;;;10173176;28;20393;-67
2022/10/14 03:44:15;;;;;;;129.63;119.40;;;;;;;;;;10170534;28;20061;-67
2022/10/14 03:49:12;;;;;;;137.98;127.40;;;;;;;;;;10170291;28;20046;-66
2022/10/14 03:54:08;;;;;;;136.70;126.07;;;;;;;;;;10177142;28;20054;-67
2022/10/14 03:59:04;;;;;;;143.32;131.90;;;;;;;;;;10176250;28;20527;-67
2022/10/14 04:04:00;;;;;;;138.07;127.43;;;;;;;;;;10177421;28;20042;-67
2022/10/14 04:08:56;;;;;;;137.57;126.57;;;;;;;;;;10175335;28;20042;-67
2022/10/14 04:13:56;;;;;;;135.35;125.15;;;;;;;;;;10171793;28;20152;-68
2022/10/14 04:18:52;;;;;;;139.63;128.82;;;;;;;;;;10173904;28;20492;-68
2022/10/14 04:23:49;;;;;;;131.90;121.45;;;;;;;;;;10172070;28;20048;-69
2022/10/14 04:28:45;;;;;;;137.15;126.40;;;;;;;;;;10168978;28;20523;-69
2022/10/14 04:33:42;;;;;;;133.85;123.20;;;;;;;;;;10171200;28;20045;-68
2022/10/14 04:38:38;;;;;;;135.75;125.43;;;;;;;;;;10171536;28;20553;-68
2022/10/14 04:43:34;;;;;;;131.38;121.00;;;;;;;;;;10174875;28;20046;-68
2022/10/14 04:48:30;;;;;;;134.13;123.43;;;;;;;;;;10178822;28;20041;-68
2022/10/14 04:53:27;;;;;;;135.70;125.70;;;;;;;;;;10179263;28;20046;-68
2022/10/14 04:58:23;;;;;;;132.63;122.57;;;;;;;;;;10183714;28;20041;-68
2022/10/14 05:03:19;;;;;;;133.57;123.57;;;;;;;;;;10180686;28;20052;-67
2022/10/14 05:08:16;;;;;;;134.93;124.15;;;;;;;;;;10176700;28;20046;-67
2022/10/14 05:13:12;;;;;;;135.50;124.65;;;;;;;;;;10171298;28;20412;-67
2022/10/14 05:18:09;;;;;;;135.05;124.70;;;;;;;;;;10171625;28;20581;-68
2022/10/14 05:23:06;;;;;;;134.65;123.72;;;;;;;;;;10183808;28;20050;-68
2022/10/14 05:28:02;;;;;;;133.35;122.15;;;;;;;;;;10177755;28;20505;-68
2022/10/14 05:32:59;;;;;;;132.05;121.28;;;;;;;;;;10183435;28;20068;-68
2022/10/14 05:37:56;;;;;;;131.13;120.53;;;;;;;;;;10186842;28;20050;-68
2022/10/14 05:42:59;;;;;;;131.80;121.05;;;;;;;;;;10168637;28;20074;-67
2022/10/14 05:47:55;;;;;;;135.25;123.90;;;;;;;;;;10171726;28;20058;-68
2022/10/14 05:52:51;;;;;;;135.45;123.85;;;;;;;;;;10182857;28;20052;-68
2022/10/14 05:57:48;;;;;;;133.63;122.47;;;;;;;;;;10186137;28;20061;-67
2022/10/14 06:02:45;;;;;;;134.95;123.57;;;;;;;;;;10175505;28;20065;-67
2022/10/14 06:07:41;;;;;;;139.20;127.05;;;;;;;;;;10180434;28;20046;-68
2022/10/14 06:12:37;;;;;;;134.23;123.03;;;;;;;;;;10178131;28;20045;-67
2022/10/14 06:17:34;;;;;;;136.75;124.80;;;;;;;;;;10182220;28;20415;-68
2022/10/14 06:22:30;;;;;;;137.98;126.63;;;;;;;;;;10175112;28;20054;-68
2022/10/14 06:27:26;;;;;;;138.15;126.72;;;;;;;;;;10182177;28;20057;-67
2022/10/14 06:32:22;;;;;;;139.52;127.90;;;;;;;;;;10185580;28;20050;-68
2022/10/14 06:37:19;;;;;;;142.02;130.10;;;;;;;;;;10185518;28;20520;-68
2022/10/14 06:42:16;;;;;;;135.35;124.65;;;;;;;;;;10167917;28;20073;-68
2022/10/14 06:47:12;;;;;;;135.02;124.20;;;;;;;;;;10176378;28;20129;-68
2022/10/14 06:52:08;;;;;;;140.13;128.52;;;;;;;;;;10181595;28;20046;-68
2022/10/14 06:57:06;;;;;;;142.95;131.45;;;;;;;;;;10189979;28;20048;-68
2022/10/14 07:02:02;;;;;;;141.40;130.07;;;;;;;;;;10187707;28;20052;-68
2022/10/14 07:06:58;;;;;;;138.10;126.43;;;;;;;;;;10185735;28;20052;-69
2022/10/14 07:11:54;;;;;;;135.32;124.30;;;;;;;;;;10185174;28;20072;-68
2022/10/14 07:16:52;;;;;;;134.30;123.60;;;;;;;;;;10181734;28;20056;-68
2022/10/14 07:21:48;;;;;;;129.27;119.00;;;;;;;;;;10177570;28;20052;-68
2022/10/14 07:26:44;;;;;;;136.57;125.45;;;;;;;;;;10162712;28;20050;-68
2022/10/14 07:31:41;;;;;;;134.98;123.97;;;;;;;;;;10161342;28;20056;-69
2022/10/14 07:36:37;;;;;;;133.02;122.35;;;;;;;;;;10164597;28;20073;-69
2022/10/14 07:41:33;;;;;;;129.25;118.90;;;;;;;;;;10163731;28;20050;-69
2022/10/14 07:46:33;;;;;;;127.30;117.20;;;;;;;;;;10164972;28;20042;-69
2022/10/14 07:51:30;;;;;;;123.45;113.95;;;;;;;;;;10167278;28;20069;-69
2022/10/14 07:56:26;;;;;;;117.32;107.60;;;;;;;;;;10176965;28;20057;-69
2022/10/14 08:01:23;;;;;;;109.47;100.57;;;;;;;;;;10169478;28;20408;-69
2022/10/14 08:06:19;;;;;;;112.10;102.78;;;;;;;;;;10180013;28;20088;-68
2022/10/14 08:11:17;;;;;;;104.18;95.57;;;;;;;;;;10181359;28;20053;-69
2022/10/14 08:16:19;;;;;;;107.53;98.60;;;;;;;;;;10186016;28;20166;-69
2022/10/14 08:21:16;;;;;;;108.97;99.45;;;;;;;;;;10176533;28;20056;-69
2022/10/14 08:26:21;;;;;;;104.25;96.20;;;;;;;;;;10180884;28;20080;-69
2022/10/14 08:31:18;;;;;;;81.00;74.45;;;;;;;;;;10178658;28;20052;-69
2022/10/14 08:36:15;;;;;;;62.53;56.30;;;;;;;;;;10187514;28;20045;-69
2022/10/14 08:41:11;;;;;;;52.60;47.35;;;;;;;;;;10181012;28;20046;-69
2022/10/14 08:46:19;;;;;;;46.53;42.05;;;;;;;;;;10177788;28;20077;-69
2022/10/14 08:51:16;;;;;;;38.70;34.55;;;;;;;;;;10174420;28;20045;-69
2022/10/14 08:56:13;;;;;;;39.13;34.78;;;;;;;;;;10180284;28;20051;-69
2022/10/14 09:01:09;;;;;;;36.58;32.85;;;;;;;;;;10180184;28;20046;-68
2022/10/14 09:06:20;;;;;;;38.15;33.78;;;;;;;;;;10176280;28;20533;-68
2022/10/14 09:11:18;;;;;;;37.00;33.10;;;;;;;;;;10185182;28;20069;-69
2022/10/14 09:16:18;;;;;;;37.25;32.97;;;;;;;;;;10189182;28;20500;-69
2022/10/14 09:21:23;;;;;;;35.65;31.98;;;;;;;;;;10188116;28;20050;-69
2022/10/14 09:26:41;;;;;;;34.75;31.00;;;;;;;;;;10195007;28;20042;-68
2022/10/14 09:31:37;;;;;;;33.60;30.00;;;;;;;;;;10184834;28;20045;-68
2022/10/14 09:36:33;;;;;;;33.08;29.52;;;;;;;;;;10173395;28;20154;-68
2022/10/14 09:41:30;;;;;;;33.28;28.88;;;;;;;;;;10188638;28;20052;-68
2022/10/14 09:46:27;;;;;;;34.63;30.98;;;;;;;;;;10191886;28;20053;-68
2022/10/14 09:51:27;;;;;;;32.30;28.83;;;;;;;;;;10195058;28;20132;-68
2022/10/14 09:56:33;;;;;;;31.27;28.08;;;;;;;;;;10191416;28;20492;-68
2022/10/14 10:01:40;;;;;;;31.77;28.48;;;;;;;;;;10186901;28;20427;-68
2022/10/14 10:06:49;;;;;;;30.38;26.67;;;;;;;;;;10187010;28;20062;-68
2022/10/14 10:11:45;;;;;;;32.95;29.40;;;;;;;;;;10188067;28;20416;-68
2022/10/14 10:16:42;;;;;;;38.78;32.00;;;;;;;;;;10188750;28;20404;-68
2022/10/14 10:21:38;;;;;;;37.00;32.03;;;;;;;;;;10171756;28;20046;-68
2022/10/14 10:26:34;;;;;;;32.28;28.73;;;;;;;;;;10167854;28;20053;-69
2022/10/14 10:31:47;;;;;;;31.48;27.35;;;;;;;;;;10173794;28;20078;-68
2022/10/14 10:36:56;;;;;;;31.23;27.83;;;;;;;;;;10169393;28;20045;-69
2022/10/14 10:42:09;;;;;;;28.77;25.77;;;;;;;;;;10160751;28;20839;-68
2022/10/14 10:47:23;;;;;;;33.95;28.10;;;;;;;;;;10163436;28;20046;-67
2022/10/14 10:52:20;;;;;;;31.20;27.80;;;;;;;;;;10166665;28;20142;-68
2022/10/14 10:57:23;;;;;;;31.95;28.65;;;;;;;;;;10182766;28;20058;-68
2022/10/14 11:02:32;;;;;;;31.23;27.60;;;;;;;;;;10179323;28;20077;-68
2022/10/14 11:12:58;;;;;;;31.30;27.90;;;;;;;;;;10167161;28;20072;-69
2022/10/14 11:18:21;;;;;;;27.73;24.75;;;;;;;;;;10168536;28;20069;-68
2022/10/14 11:23:34;;;;;;;30.60;27.38;;;;;;;;;;10182622;28;20042;-68
2022/10/14 11:28:37;;;;;;;31.17;27.33;;;;;;;;;;10161372;28;20054;-69
2022/10/14 11:33:43;;;;;;;29.88;26.80;;;;;;;;;;10169197;28;20045;-69
2022/10/14 11:38:39;;;;;;;30.38;27.08;;;;;;;;;;10192669;28;20423;-68
2022/10/14 11:43:42;;;;;;;28.15;25.13;;;;;;;;;;10179077;28;20080;-68
2022/10/14 11:48:47;;;;;;;29.35;26.27;;;;;;;;;;10176510;28;20050;-68
2022/10/14 11:53:43;;;;;;;28.42;25.55;;;;;;;;;;10178377;28;20041;-68
2022/10/14 11:58:42;;;;;;;29.92;26.73;;;;;;;;;;10180595;28;20046;-68
2022/10/14 12:03:59;;;;;;;27.60;24.70;;;;;;;;;;10180249;28;20052;-68
2022/10/14 12:09:01;;;;;;;28.58;25.63;;;;;;;;;;10171540;28;20411;-69
2022/10/14 12:14:17;;;;;;;27.73;24.73;;;;;;;;;;10163559;28;20050;-69
2022/10/14 12:19:17;;;;;;;30.30;27.30;;;;;;;;;;10164489;28;20050;-68
2022/10/14 12:24:17;;;;;;;26.30;23.63;;;;;;;;;;10161144;28;20038;-69
2022/10/14 12:29:14;;;;;;;25.25;22.77;;;;;;;;;;10167669;28;20048;-69
2022/10/14 12:34:14;;;;;;;25.48;22.88;;;;;;;;;;10167695;28;20053;-69
2022/10/14 12:39:16;;;;;;;24.05;20.85;;;;;;;;;;10175413;28;20513;-68
2022/10/14 12:44:14;;;;;;;22.30;20.00;;;;;;;;;;10187648;28;20539;-68
2022/10/14 12:49:20;;;;;;;22.42;20.20;;;;;;;;;;10180597;28;20049;-68
2022/10/14 12:54:16;;;;;;;20.52;18.63;;;;;;;;;;10184165;28;20058;-69
2022/10/14 12:59:35;;;;;;;15.80;14.30;;;;;;;;;;10181823;28;20046;-68
2022/10/14 13:04:31;;;;;;;16.73;15.13;;;;;;;;;;10185688;28;20053;-68
2022/10/14 13:09:33;;;;;;;15.95;14.48;;;;;;;;;;10182984;28;20037;-68
2022/10/14 13:14:34;;;;;;;16.38;14.88;;;;;;;;;;10181393;28;20047;-68
2022/10/14 13:19:33;;;;;;;15.18;13.63;;;;;;;;;;10191120;28;20464;-68
2022/10/14 13:24:31;;;;;;;15.70;14.20;;;;;;;;;;10166265;28;20053;-68
2022/10/14 13:30:06;;;;;;;17.85;16.08;;;;;;;;;;10183287;28;20053;-68
2022/10/14 13:35:21;;;;;;;19.92;18.00;;;;;;;;;;10060631;29;20069;-68
2022/10/14 13:40:38;;;;;;;20.13;18.10;;;;;;;;;;10136599;28;20057;-68
2022/10/14 13:45:37;;;;;;;22.10;20.00;;;;;;;;;;10192709;28;20049;-68
2022/10/14 13:50:37;;;;;;;19.80;17.77;;;;;;;;;;10186582;28;20451;-68
2022/10/14 13:55:41;;;;;;;19.90;17.92;;;;;;;;;;10185431;28;20054;-68
2022/10/14 14:00:40;;;;;;;20.38;18.40;;;;;;;;;;10180252;28;20054;-69
2022/10/14 14:05:40;;;;;;;21.17;19.33;;;;;;;;;;10165058;28;20069;-69
2022/10/14 14:10:37;;;;;;;20.40;18.48;;;;;;;;;;10166493;28;20485;-68
2022/10/14 14:15:54;;;;;;;21.73;19.65;;;;;;;;;;10173713;28;20046;-68
2022/10/14 14:20:57;;;;;;;19.52;17.80;;;;;;;;;;10173197;28;20050;-68
2022/10/14 14:25:54;;;;;;;22.65;20.55;;;;;;;;;;10173933;28;20042;-68
2022/10/14 14:31:13;;;;;;;19.75;17.88;;;;;;;;;;10173273;28;20603;-68
2022/10/14 14:36:12;;;;;;;20.58;18.77;;;;;;;;;;10185155;28;20655;-68
2022/10/14 14:41:25;;;;;;;23.25;21.15;;;;;;;;;;10176009;28;20101;-68
2022/10/14 14:46:27;;;;;;;22.17;20.35;;;;;;;;;;10176295;28;20515;-68
2022/10/14 14:51:25;;;;;;;25.20;22.95;;;;;;;;;;10178124;28;22072;-68
2022/10/14 14:56:31;;;;;;;25.00;22.90;;;;;;;;;;10188040;28;20042;-68
2022/10/14 15:01:28;;;;;;;24.38;22.27;;;;;;;;;;10181582;28;20046;-68
2022/10/14 15:06:25;;;;;;;25.80;23.60;;;;;;;;;;10183188;28;20047;-68
2022/10/14 15:11:22;;;;;;;28.30;25.90;;;;;;;;;;10185339;28;20042;-68
2022/10/14 15:16:35;;;;;;;28.20;25.80;;;;;;;;;;10180121;28;20144;-69
2022/10/14 15:21:32;;;;;;;28.48;26.08;;;;;;;;;;10177774;28;20042;-70
2022/10/14 15:26:32;;;;;;;28.15;25.95;;;;;;;;;;10183617;28;20046;-70
2022/10/14 15:31:28;;;;;;;30.83;28.55;;;;;;;;;;10181397;28;20042;-68
2022/10/14 15:36:26;;;;;;;32.38;29.98;;;;;;;;;;10176195;28;20098;-68
2022/10/14 15:41:23;;;;;;;32.67;30.17;;;;;;;;;;10171982;28;20084;-69
2022/10/14 15:51:34;;;;;;;34.33;31.92;;;;;;;;;;10171975;28;20042;-68
2022/10/14 15:56:31;;;;;;;33.75;31.25;;;;;;;;;;10169935;28;20050;-68
2022/10/14 16:01:27;;;;;;;34.78;32.42;;;;;;;;;;10168460;28;20049;-68
2022/10/14 16:06:26;;;;;;;39.03;36.15;;;;;;;;;;10172093;28;20056;-68
2022/10/14 16:11:29;;;;;;;37.58;34.88;;;;;;;;;;10206727;28;20041;-68
2022/10/14 16:16:34;;;;;;;41.00;37.92;;;;;;;;;;10198912;28;20624;-68
2022/10/14 16:21:31;;;;;;;39.33;36.55;;;;;;;;;;10204381;28;20041;-67
2022/10/14 16:26:29;;;;;;;41.63;38.60;;;;;;;;;;10192499;28;20061;-68
2022/10/14 16:31:25;;;;;;;48.53;45.13;;;;;;;;;;10172235;28;20046;-67
2022/10/14 16:36:23;;;;;;;44.75;41.65;;;;;;;;;;10180052;28;20552;-70
2022/10/14 16:41:20;;;;;;;44.00;41.05;;;;;;;;;;10177352;28;20056;-68
2022/10/14 16:46:16;;;;;;;38.78;36.10;;;;;;;;;;10183688;28;20050;-68
2022/10/14 16:51:14;;;;;;;42.08;39.28;;;;;;;;;;10182524;28;20041;-68
2022/10/14 17:01:27;;;;;;;42.83;39.70;;;;;;;;;;10181848;28;20125;-68
2022/10/14 17:06:24;;;;;;;44.85;41.75;;;;;;;;;;10182499;28;20050;-70
2022/10/14 17:11:20;;;;;;;40.72;37.92;;;;;;;;;;10183680;28;20048;-70
2022/10/14 17:16:17;;;;;;;43.72;40.53;;;;;;;;;;10184839;28;20049;-68
2022/10/14 17:21:13;;;;;;;41.28;38.53;;;;;;;;;;10177259;28;20508;-70
2022/10/14 17:26:11;;;;;;;36.80;34.17;;;;;;;;;;10174946;28;20056;-68
2022/10/14 17:31:09;;;;;;;37.63;34.80;;;;;;;;;;10183560;28;20757;-68
2022/10/14 17:36:06;;;;;;;37.85;35.00;;;;;;;;;;10178371;28;20566;-68
2022/10/14 17:41:06;;;;;;;36.05;33.45;;;;;;;;;;10185987;28;20079;-69
2022/10/14 17:46:04;;;;;;;38.17;35.42;;;;;;;;;;10174130;28;20562;-68
2022/10/14 17:51:01;;;;;;;39.92;36.75;;;;;;;;;;10184177;28;20058;-68
2022/10/14 17:56:01;;;;;;;37.83;35.25;;;;;;;;;;10175548;28;20052;-68
2022/10/14 18:01:11;;;;;;;38.08;35.42;;;;;;;;;;10171251;28;21456;-68
2022/10/14 18:06:08;;;;;;;38.40;35.70;;;;;;;;;;10182360;28;20050;-69
2022/10/14 18:11:05;;;;;;;38.47;35.67;;;;;;;;;;10177651;28;20419;-68
2022/10/14 18:16:07;;;;;;;40.00;37.40;;;;;;;;;;10191636;28;20045;-68
2022/10/14 18:21:04;;;;;;;40.00;37.33;;;;;;;;;;10185709;28;20073;-68
2022/10/14 18:26:11;;;;;;;39.10;36.30;;;;;;;;;;10176688;28;20492;-69
2022/10/14 18:31:10;;;;;;;42.95;40.35;;;;;;;;;;10180149;28;20136;-68
2022/10/14 18:36:07;;;;;;;44.55;41.85;;;;;;;;;;10175697;28;20417;-68
2022/10/14 18:41:06;;;;;;;47.15;43.92;;;;;;;;;;10167877;28;20046;-68
2022/10/14 18:46:03;;;;;;;49.22;46.33;;;;;;;;;;10182129;28;20440;-68
2022/10/14 18:51:00;;;;;;;53.08;49.65;;;;;;;;;;10182916;28;20100;-68
2022/10/14 18:55:57;;;;;;;50.20;46.95;;;;;;;;;;10174624;28;20053;-68
2022/10/14 19:00:57;;;;;;;52.20;49.15;;;;;;;;;;10179283;28;20038;-68
2022/10/14 19:05:56;;;;;;;54.05;50.65;;;;;;;;;;10189401;28;20053;-68
2022/10/14 19:10:59;;;;;;;56.47;53.17;;;;;;;;;;10190521;28;20073;-68
2022/10/14 19:16:07;;;;;;;61.70;58.20;;;;;;;;;;10188483;28;20046;-68
2022/10/14 19:21:04;;;;;;;68.15;64.40;;;;;;;;;;10186252;28;20046;-68
2022/10/14 19:26:03;;;;;;;77.47;72.97;;;;;;;;;;10178816;28;20035;-68
2022/10/14 19:31:05;;;;;;;92.10;86.85;;;;;;;;;;10185701;28;20080;-69
2022/10/14 19:36:01;;;;;;;94.32;89.13;;;;;;;;;;10185640;28;20048;-68
2022/10/14 19:40:58;;;;;;;107.47;101.50;;;;;;;;;;10184478;28;20045;-68
2022/10/14 19:45:54;;;;;;;107.85;101.22;;;;;;;;;;10183141;28;20053;-68
2022/10/14 19:50:51;;;;;;;114.95;108.53;;;;;;;;;;10181212;28;20049;-68
2022/10/14 19:55:47;;;;;;;111.00;104.60;;;;;;;;;;10166761;28;20054;-66
2022/10/14 20:00:44;;;;;;;117.00;110.30;;;;;;;;;;10172906;28;20057;-67
2022/10/14 20:05:40;;;;;;;118.03;111.07;;;;;;;;;;10175955;28;20048;-67
2022/10/14 20:10:37;;;;;;;123.63;116.15;;;;;;;;;;10180588;28;20049;-67
2022/10/14 20:15:33;;;;;;;128.35;120.65;;;;;;;;;;10183010;28;20054;-67
2022/10/14 20:20:29;;;;;;;129.05;121.60;;;;;;;;;;10177317;28;20053;-67
2022/10/14 20:25:27;;;;;;;129.00;121.40;;;;;;;;;;10173072;28;20665;-67
2022/10/14 20:30:23;;;;;;;130.25;122.47;;;;;;;;;;10182889;28;20042;-67
2022/10/14 20:35:19;;;;;;;131.98;123.85;;;;;;;;;;10185468;28;20488;-67
2022/10/14 20:40:15;;;;;;;135.32;127.25;;;;;;;;;;10178675;28;20045;-67
2022/10/14 20:45:12;;;;;;;133.60;125.40;;;;;;;;;;10186564;28;20046;-67
2022/10/14 20:50:08;;;;;;;133.75;125.55;;;;;;;;;;10181629;28;20763;-68
2022/10/14 20:55:05;;;;;;;137.00;128.70;;;;;;;;;;10182746;28;20046;-68
2022/10/14 21:00:03;;;;;;;134.27;126.05;;;;;;;;;;10170231;28;20046;-68
2022/10/14 21:04:59;;;;;;;134.63;126.57;;;;;;;;;;10193078;28;20518;-67
2022/10/14 21:09:55;;;;;;;133.23;125.03;;;;;;;;;;10188584;28;20041;-67
2022/10/14 21:14:51;;;;;;;130.15;122.45;;;;;;;;;;10193000;28;20046;-67
2022/10/14 21:19:48;;;;;;;137.77;129.68;;;;;;;;;;10195700;28;20052;-70
2022/10/14 21:24:44;;;;;;;135.93;127.75;;;;;;;;;;10193656;28;20050;-69
2022/10/14 21:29:40;;;;;;;132.98;124.97;;;;;;;;;;10194240;28;20045;-69
2022/10/14 21:34:37;;;;;;;132.40;124.63;;;;;;;;;;10193367;28;20038;-70
2022/10/14 21:39:33;;;;;;;133.77;125.75;;;;;;;;;;10195633;28;20431;-69
2022/10/14 21:44:29;;;;;;;134.50;126.43;;;;;;;;;;10192675;28;20068;-69
2022/10/14 21:49:25;;;;;;;134.23;126.22;;;;;;;;;;10193614;28;20530;-69
2022/10/14 21:54:23;;;;;;;134.50;126.32;;;;;;;;;;10188437;28;20038;-70
2022/10/14 21:59:19;;;;;;;130.80;122.88;;;;;;;;;;10180729;28;20046;-68
2022/10/14 22:04:16;;;;;;;130.57;122.72;;;;;;;;;;10192705;28;20053;-69
2022/10/14 22:09:12;;;;;;;132.13;124.22;;;;;;;;;;10187079;28;20042;-68
2022/10/14 22:14:12;;;;;;;132.57;124.45;;;;;;;;;;10182769;28;20046;-68
2022/10/14 22:19:09;;;;;;;133.55;125.55;;;;;;;;;;10189515;28;20046;-68
2022/10/14 22:24:06;;;;;;;132.98;124.97;;;;;;;;;;10191483;28;20053;-68
2022/10/14 22:29:12;;;;;;;132.83;124.73;;;;;;;;;;10186104;28;20133;-69
2022/10/14 22:34:10;;;;;;;128.60;121.05;;;;;;;;;;10181853;28;20056;-68
2022/10/14 22:39:07;;;;;;;132.73;124.82;;;;;;;;;;10192827;28;20050;-69
2022/10/14 22:44:04;;;;;;;132.70;124.55;;;;;;;;;;10195033;28;20045;-68
2022/10/14 22:49:00;;;;;;;127.18;119.45;;;;;;;;;;10191954;28;20038;-69
2022/10/14 22:53:57;;;;;;;125.70;117.68;;;;;;;;;;10193340;28;20038;-69
2022/10/14 22:58:54;;;;;;;129.18;121.28;;;;;;;;;;10183285;28;20056;-68
2022/10/14 23:03:50;;;;;;;127.95;119.93;;;;;;;;;;10181078;28;20064;-69
2022/10/14 23:08:47;;;;;;;124.50;117.00;;;;;;;;;;10183184;28;20152;-68
2022/10/14 23:13:43;;;;;;;124.13;116.47;;;;;;;;;;10190069;28;20496;-69
2022/10/14 23:18:39;;;;;;;118.10;110.65;;;;;;;;;;10181888;28;20068;-68
2022/10/14 23:23:37;;;;;;;120.82;113.25;;;;;;;;;;10188886;28;20460;-69
2022/10/14 23:28:33;;;;;;;117.45;109.75;;;;;;;;;;10188991;28;20042;-69
2022/10/14 23:33:30;;;;;;;122.38;114.50;;;;;;;;;;10190139;28;20471;-69
2022/10/14 23:38:26;;;;;;;124.25;116.25;;;;;;;;;;10188896;28;20050;-70
2022/10/14 23:43:23;;;;;;;123.72;115.95;;;;;;;;;;10174943;28;20046;-69
2022/10/14 23:48:19;;;;;;;126.43;118.32;;;;;;;;;;10181640;28;20038;-70
2022/10/14 23:53:16;;;;;;;120.93;113.22;;;;;;;;;;10184151;28;20045;-70
2022/10/14 23:58:13;;;;;;;126.38;118.28;;;;;;;;;;10188217;28;20056;-69
